Time;durP1;ratioP1;P1;durP2;ratioP2;P2;SDS_P1;SDS_P2;PMS_P1;PMS_P2;Temp;Humidity;BMP_temperature;BMP_pressure;BME280_temperature;BME280_humidity;BME280_pressure;Samples;Min_cycle;Max_cycle;Signal;HPM_P1;HPM_P2
2021/05/23 00:00:29;;;;;;;3.90;1.37;;;;;;;13.44;100.00;100137.16;1803813;79;21622;-64
2021/05/23 00:02:57;;;;;;;4.10;1.30;;;;;;;13.42;100.00;100141.01;1802972;79;21587;-65
2021/05/23 00:05:27;;;;;;;2.70;1.40;;;;;;;13.41;100.00;100138.06;1836541;76;21628;-61
2021/05/23 00:08:02;;;;;;;3.75;0.95;;;;;;;13.37;100.00;100137.19;1836686;77;22997;-65
2021/05/23 00:10:32;;;;;;;3.13;1.20;;;;;;;13.38;100.00;100132.75;1843858;77;21573;-62
2021/05/23 00:13:01;;;;;;;6.20;1.30;;;;;;;13.37;100.00;100126.72;1824733;78;21625;-65
2021/05/23 00:15:41;;;;;;;3.80;1.80;;;;;;;13.35;100.00;100115.63;1836922;77;21613;-63
2021/05/23 00:18:09;;;;;;;5.70;2.33;;;;;;;13.32;100.00;100104.76;1826093;77;21644;-63
2021/05/23 00:20:36;;;;;;;5.83;2.30;;;;;;;13.32;100.00;100104.76;1837853;77;22167;-60
2021/05/23 00:23:04;;;;;;;4.13;1.70;;;;;;;13.31;100.00;100104.47;1836588;77;22138;-64
2021/05/23 00:25:31;;;;;;;3.53;1.47;;;;;;;13.29;100.00;100105.97;1838187;76;21491;-67
2021/05/23 00:27:58;;;;;;;4.37;1.33;;;;;;;13.23;100.00;100097.64;1835520;76;21942;-65
2021/05/23 00:30:26;;;;;;;3.50;1.70;;;;;;;13.23;100.00;100097.64;1811612;76;21043;-60
2021/05/23 00:32:52;;;;;;;5.93;1.80;;;;;;;13.24;100.00;100097.13;1836962;76;21630;-65
2021/05/23 00:35:20;;;;;;;3.97;1.60;;;;;;;13.24;100.00;100097.13;1833442;76;21569;-60
2021/05/23 00:37:46;;;;;;;2.97;1.40;;;;;;;13.22;100.00;100094.70;1837173;76;21663;-64
2021/05/23 00:40:13;;;;;;;4.07;1.27;;;;;;;13.22;100.00;100090.77;1842914;76;21591;-64
2021/05/23 00:42:39;;;;;;;3.07;1.40;;;;;;;13.25;100.00;100070.73;1837058;76;21602;-61
2021/05/23 00:45:08;;;;;;;2.23;1.30;;;;;;;13.25;100.00;100070.73;1836584;76;21556;-64
2021/05/23 00:47:35;;;;;;;2.73;1.23;;;;;;;13.26;100.00;100071.53;1836855;76;21574;-60
2021/05/23 00:50:04;;;;;;;3.77;1.67;;;;;;;13.27;100.00;100069.24;1833791;76;21693;-65
2021/05/23 00:52:32;;;;;;;2.87;1.20;;;;;;;13.26;100.00;100063.69;1834397;76;21561;-62
2021/05/23 00:55:01;;;;;;;4.23;1.50;;;;;;;13.26;100.00;100069.75;1835105;76;21650;-64
2021/05/23 00:57:28;;;;;;;3.40;1.60;;;;;;;13.26;100.00;100063.69;1838183;76;21655;-63
2021/05/23 00:59:55;;;;;;;3.37;1.40;;;;;;;13.26;100.00;100064.99;1836970;76;21596;-64
2021/05/23 01:02:48;;;;;;;3.87;1.50;;;;;;;13.26;100.00;100062.38;1835813;76;21573;-60
2021/05/23 01:05:18;;;;;;;4.10;1.60;;;;;;;13.26;100.00;100069.75;1825599;76;21615;-64
2021/05/23 01:07:44;;;;;;;2.20;1.30;;;;;;;13.28;100.00;100081.31;1827299;76;21566;-63
2021/05/23 01:10:17;;;;;;;4.10;1.80;;;;;;;13.29;100.00;100081.09;1828004;77;21536;-62
2021/05/23 01:12:57;;;;;;;;;;;;;;;13.30;100.00;100070.95;1795777;78;21383;-61
2021/05/23 01:15:35;;;;;;;4.50;1.70;;;;;;;13.34;100.00;100066.91;1819684;77;20218;-63
2021/05/23 01:18:04;;;;;;;3.43;1.00;;;;;;;13.36;100.00;100074.55;1821327;77;21614;-64
2021/05/23 01:20:42;;;;;;;6.50;1.20;;;;;;;13.36;100.00;100084.50;1793093;79;21646;-63
2021/05/23 01:23:29;;;;;;;3.17;1.27;;;;;;;13.42;100.00;100083.41;1824216;77;21987;-63
2021/05/23 01:26:06;;;;;;;2.57;1.43;;;;;;;13.42;100.00;100083.41;1793358;78;21599;-62
2021/05/23 01:28:45;;;;;;;2.70;1.20;;;;;;;13.46;100.00;100080.67;1789129;78;21593;-64
2021/05/23 01:31:15;;;;;;;4.23;1.33;;;;;;;13.48;100.00;100079.95;1790815;79;21527;-61
2021/05/23 01:33:42;;;;;;;2.97;1.27;;;;;;;13.48;100.00;100086.49;1827465;76;22193;-63
2021/05/23 01:36:10;;;;;;;3.37;1.00;;;;;;;13.48;100.00;100093.03;1828480;77;22139;-63
2021/05/23 05:45:13;;;;;;;5.30;1.20;;;;;;;20.78;100.00;100071.00;1810677;78;26940;-66
2021/05/23 05:47:40;;;;;;;5.80;1.50;;;;;;;21.14;100.00;100074.67;1787398;79;21051;-63
2021/05/23 05:50:08;;;;;;;2.30;1.17;;;;;;;21.54;100.00;100075.39;1795065;78;21516;-65
2021/05/23 05:52:35;;;;;;;6.63;1.30;;;;;;;21.92;100.00;100070.73;1803485;78;21610;-64
2021/05/23 05:55:01;;;;;;;5.67;2.00;;;;;;;22.54;100.00;100073.75;1800516;78;21527;-60
2021/05/23 05:57:28;;;;;;;6.00;1.67;;;;;;;23.56;100.00;100075.34;1800812;78;21048;-62
2021/05/23 05:59:54;;;;;;;3.20;1.37;;;;;;;24.73;100.00;100076.45;1791494;78;22604;-62
2021/05/23 06:02:22;;;;;;;3.50;1.77;;;;;;;25.92;96.62;100071.61;1782299;79;21067;-63
2021/05/23 06:04:50;;;;;;;3.08;1.35;;;;;;;27.14;82.54;100074.67;1795076;79;20918;-61
2021/05/23 06:07:17;;;;;;;3.15;1.70;;;;;;;28.33;60.48;100073.13;1794294;78;22309;-63
2021/05/23 06:09:43;;;;;;;2.83;1.40;;;;;;;29.38;54.34;100074.42;1798160;79;21014;-66
2021/05/23 06:12:10;;;;;;;3.50;1.22;;;;;;;30.57;45.68;100073.92;1733937;81;20976;-65
2021/05/23 06:14:38;;;;;;;2.70;1.10;;;;;;;31.59;41.36;100070.28;1732361;82;21741;-66
2021/05/23 06:17:06;;;;;;;1.57;0.93;;;;;;;32.34;38.58;100072.19;1757999;79;21609;-65
2021/05/23 06:19:32;;;;;;;2.33;1.20;;;;;;;33.05;34.17;100076.48;1727888;80;21080;-64
2021/05/23 06:21:59;;;;;;;6.28;1.02;;;;;;;33.62;32.26;100074.95;1733560;82;21056;-64
2021/05/23 06:24:26;;;;;;;2.65;1.20;;;;;;;34.03;31.72;100083.06;1760072;79;20949;-64
2021/05/23 06:26:52;;;;;;;4.25;0.95;;;;;;;34.44;30.04;100085.89;1749541;81;21079;-63
2021/05/23 06:29:19;;;;;;;1.85;0.90;;;;;;;34.75;28.42;100081.64;1745836;81;22495;-67
2021/05/23 06:31:46;;;;;;;1.75;0.98;;;;;;;34.86;28.19;100089.46;1719825;82;21120;-66
2021/05/23 06:34:13;;;;;;;2.35;0.82;;;;;;;34.83;27.15;100091.51;1726425;80;22512;-65
2021/05/23 06:36:41;;;;;;;2.52;1.20;;;;;;;34.51;27.87;100094.22;1692205;83;21012;-66
2021/05/23 06:39:08;;;;;;;3.70;1.25;;;;;;;34.52;28.32;100090.95;1734175;80;21071;-66
2021/05/23 06:41:35;;;;;;;3.52;1.20;;;;;;;34.62;28.27;100091.19;1760157;81;21066;-65
2021/05/23 06:44:04;;;;;;;2.72;1.10;;;;;;;34.60;28.44;100084.57;1739250;82;20996;-63
2021/05/23 06:46:31;;;;;;;4.15;1.12;;;;;;;34.35;28.98;100082.55;1800141;79;20977;-66
2021/05/23 06:48:58;;;;;;;3.50;1.30;;;;;;;34.22;29.72;100075.08;1807499;79;20901;-66
2021/05/23 06:51:24;;;;;;;3.98;1.32;;;;;;;34.14;30.09;100071.40;1808353;79;21051;-67
2021/05/23 06:53:52;;;;;;;5.47;1.60;;;;;;;34.09;30.15;100076.26;1800875;79;21022;-65
2021/05/23 06:56:18;;;;;;;2.42;1.02;;;;;;;34.28;30.95;100078.30;1803957;77;20958;-69
2021/05/23 06:58:45;;;;;;;4.53;1.67;;;;;;;34.75;29.26;100077.02;1804810;79;20992;-67
2021/05/23 07:01:12;;;;;;;2.65;1.40;;;;;;;35.30;28.95;100070.34;1803842;79;20952;-64
2021/05/23 07:03:39;;;;;;;2.27;1.10;;;;;;;35.84;28.64;100070.91;1798117;79;21145;-65
2021/05/23 07:06:06;;;;;;;3.83;0.93;;;;;;;36.25;28.11;100079.42;1806033;79;20964;-63
2021/05/23 07:08:34;;;;;;;3.15;1.40;;;;;;;36.30;27.46;100073.14;1794975;79;21026;-65
2021/05/23 07:11:01;;;;;;;4.25;1.70;;;;;;;36.19;27.17;100071.39;1794946;77;20916;-67
2021/05/23 07:13:28;;;;;;;2.15;1.00;;;;;;;36.08;27.33;100060.34;1737058;82;20930;-61
2021/05/23 07:15:55;;;;;;;3.45;1.15;;;;;;;36.03;27.06;100062.78;1792355;79;21042;-65
2021/05/23 07:18:22;;;;;;;3.20;1.30;;;;;;;35.93;26.69;100065.26;1797063;79;21581;-63
2021/05/23 07:20:49;;;;;;;3.65;1.15;;;;;;;35.78;27.06;100069.62;1800016;79;21538;-68
2021/05/23 07:23:16;;;;;;;3.50;1.10;;;;;;;35.68;26.56;100070.97;1802178;79;21012;-67
2021/05/23 07:25:44;;;;;;;1.92;1.00;;;;;;;35.71;26.35;100072.97;1808240;79;20949;-62
2021/05/23 07:28:11;;;;;;;3.58;1.80;;;;;;;35.70;26.22;100067.91;1801775;79;21694;-68
2021/05/23 07:30:39;;;;;;;6.42;2.30;;;;;;;35.63;26.16;100071.84;1785596;78;20932;-62
2021/05/23 07:33:06;;;;;;;5.90;2.12;;;;;;;35.43;26.38;100070.44;1807549;79;21597;-68
2021/05/23 07:35:33;;;;;;;2.80;1.12;;;;;;;35.35;25.88;100067.37;1780465;78;21108;-69
2021/05/23 07:38:01;;;;;;;2.92;0.78;;;;;;;35.32;24.94;100062.66;1793896;79;20878;-68
2021/05/23 07:40:29;;;;;;;1.45;0.60;;;;;;;35.25;24.92;100062.50;1795571;78;22439;-66
2021/05/23 07:42:56;;;;;;;3.62;0.80;;;;;;;35.06;24.85;100059.95;1793065;77;20945;-65
2021/05/23 07:45:24;;;;;;;1.42;0.82;;;;;;;35.04;24.83;100071.73;1771631;79;21620;-66
2021/05/23 07:47:51;;;;;;;1.85;0.80;;;;;;;34.84;24.87;100062.71;1771358;78;21621;-61
2021/05/23 07:50:17;;;;;;;2.08;0.90;;;;;;;34.79;24.70;100063.56;1778459;79;20897;-67
2021/05/23 07:52:44;;;;;;;2.42;0.85;;;;;;;34.77;24.96;100060.41;1792889;79;21059;-62
2021/05/23 07:55:12;;;;;;;3.30;1.45;;;;;;;34.54;24.44;100061.59;1776850;79;20866;-66
2021/05/23 07:57:39;;;;;;;8.03;1.60;;;;;;;34.39;24.93;100060.42;1781801;79;20982;-65
2021/05/23 08:16:12;;;;;;;1.95;0.80;;;;;;;36.38;22.43;100050.20;1744596;80;22650;-60
2021/05/23 08:18:39;;;;;;;2.08;0.90;;;;;;;36.39;22.36;100047.11;1744871;81;20991;-59
2021/05/23 08:21:06;;;;;;;2.05;1.00;;;;;;;36.26;22.44;100047.88;1750745;80;21184;-64
2021/05/23 08:23:33;;;;;;;1.05;0.55;;;;;;;36.25;22.50;100051.70;1746245;81;21011;-64
2021/05/23 08:26:00;;;;;;;2.02;0.70;;;;;;;36.27;21.67;100051.36;1755584;81;21027;-67
2021/05/23 08:28:29;;;;;;;3.83;1.17;;;;;;;36.31;21.84;100048.14;1749456;81;21010;-68
2021/05/23 08:30:56;;;;;;;2.33;0.93;;;;;;;36.33;21.55;100049.12;1746046;81;21027;-66
2021/05/23 08:33:22;;;;;;;2.10;1.20;;;;;;;36.13;21.63;100051.89;1750507;81;22000;-68
2021/05/23 08:35:49;;;;;;;2.98;1.00;;;;;;;35.98;21.45;100045.96;1753358;81;21624;-67
2021/05/23 08:38:16;;;;;;;3.40;0.70;;;;;;;36.05;21.67;100056.41;1743053;80;20901;-66
2021/05/23 08:40:43;;;;;;;4.05;0.70;;;;;;;35.99;21.61;100050.27;1749288;79;21033;-66
2021/05/23 08:43:14;;;;;;;2.27;0.88;;;;;;;35.97;21.87;100047.90;1746511;80;21562;-70
2021/05/23 08:45:41;;;;;;;2.33;0.97;;;;;;;36.13;21.60;100047.81;1748875;81;21101;-66
2021/05/23 08:48:08;;;;;;;3.27;0.90;;;;;;;36.16;21.20;100043.03;1752582;80;21512;-67
2021/05/23 08:50:35;;;;;;;2.75;0.98;;;;;;;36.05;21.54;100049.63;1764807;80;21018;-65
2021/05/23 08:53:04;;;;;;;2.27;0.82;;;;;;;36.02;21.29;100046.27;1749371;80;21078;-68
2021/05/23 08:55:33;;;;;;;1.60;1.15;;;;;;;35.92;21.35;100043.35;1744206;80;21011;-65
2021/05/23 08:58:00;;;;;;;3.05;1.60;;;;;;;35.80;21.82;100045.62;1778416;80;21072;-66
2021/05/23 09:00:27;;;;;;;2.90;1.30;;;;;;;35.73;21.51;100038.73;1750607;80;21006;-62
2021/05/23 09:03:00;;;;;;;3.22;1.25;;;;;;;35.73;22.10;100048.22;1756980;80;21078;-64
2021/05/23 09:05:35;;;;;;;3.98;1.60;;;;;;;35.64;21.75;100046.28;1753965;80;22327;-66
2021/05/23 09:08:30;;;;;;;2.83;1.32;;;;;;;35.50;22.34;100054.36;1756038;80;20975;-62
2021/05/23 09:11:04;;;;;;;2.83;1.30;;;;;;;35.62;22.20;100045.88;1723950;81;21155;-63
2021/05/23 09:13:34;;;;;;;2.17;1.30;;;;;;;35.88;21.82;100049.25;1718279;81;21007;-65
2021/05/23 09:16:08;;;;;;;4.50;1.20;;;;;;;36.07;21.22;100046.56;1716995;80;20999;-65
2021/05/23 09:18:45;;;;;;;2.00;1.20;;;;;;;36.26;20.33;100041.66;1731413;80;21015;-63
2021/05/23 09:21:15;;;;;;;4.62;1.30;;;;;;;36.51;21.02;100038.02;1723232;80;21545;-65
2021/05/23 09:23:53;;;;;;;3.30;1.30;;;;;;;36.76;21.21;100038.41;1734969;80;21093;-62
2021/05/23 09:26:24;;;;;;;2.65;1.27;;;;;;;37.00;20.75;100033.16;1740722;80;21027;-65
2021/05/23 09:28:52;;;;;;;2.12;0.98;;;;;;;37.20;20.70;100035.16;1733397;81;21565;-66
2021/05/23 09:31:21;;;;;;;1.92;1.02;;;;;;;37.12;20.79;100032.14;1741559;80;20916;-65
2021/05/23 09:33:52;;;;;;;2.50;1.30;;;;;;;36.99;20.79;100034.31;1735736;80;20911;-67
2021/05/23 09:36:21;;;;;;;2.67;1.40;;;;;;;36.82;21.16;100028.78;1709667;80;21114;-66
2021/05/23 09:39:03;;;;;;;1.82;1.02;;;;;;;36.64;21.44;100033.19;1748314;80;21055;-66
2021/05/23 09:41:38;;;;;;;1.90;1.32;;;;;;;36.50;21.12;100037.23;1712160;82;20961;-66
2021/05/23 09:44:22;;;;;;;2.77;1.35;;;;;;;36.32;21.30;100040.20;1710699;82;21146;-66
2021/05/23 09:47:04;;;;;;;4.17;1.40;;;;;;;36.21;21.44;100029.16;1716153;82;21592;-65
2021/05/23 09:49:40;;;;;;;2.83;1.42;;;;;;;36.19;21.47;100034.75;1719439;82;22547;-63
2021/05/23 09:52:04;;;;;;;5.72;1.87;;;;;;;36.13;21.14;100032.11;1742840;80;21089;-64
2021/05/23 09:54:52;;;;;;;3.60;1.30;;;;;;;36.01;21.82;100034.43;1720342;82;21546;-65
2021/05/23 09:57:22;;;;;;;1.80;1.10;;;;;;;35.92;21.98;100034.64;1721934;80;21052;-63
2021/05/23 10:00:10;;;;;;;3.20;1.47;;;;;;;35.94;21.97;100036.41;1724978;80;21093;-65
2021/05/23 10:02:57;;;;;;;4.87;1.70;;;;;;;35.88;22.13;100035.69;1720643;80;21113;-65
2021/05/23 10:05:24;;;;;;;6.10;1.77;;;;;;;35.76;22.10;100039.34;1735844;80;21976;-65
2021/05/23 10:07:51;;;;;;;4.42;1.90;;;;;;;35.73;22.17;100038.16;1757095;80;21075;-65
2021/05/23 10:10:18;;;;;;;3.77;2.08;;;;;;;35.72;22.06;100035.78;1700945;82;20995;-64
2021/05/23 10:12:45;;;;;;;6.12;2.00;;;;;;;35.61;21.86;100036.14;1704867;83;21093;-64
2021/05/23 10:15:13;;;;;;;2.67;1.77;;;;;;;35.43;22.22;100037.91;1706840;82;21113;-65
2021/05/23 10:17:41;;;;;;;4.60;1.70;;;;;;;35.31;22.63;100033.98;1705313;82;21031;-66
2021/05/23 10:20:11;;;;;;;3.85;1.77;;;;;;;35.38;22.46;100036.05;1705632;83;20944;-62
2021/05/23 10:22:39;;;;;;;4.60;1.75;;;;;;;35.36;22.23;100034.27;1704857;83;20948;-65
2021/05/23 10:25:11;;;;;;;2.08;1.50;;;;;;;35.21;22.43;100032.61;1701157;83;20931;-63
2021/05/23 10:27:42;;;;;;;1.95;1.40;;;;;;;35.23;22.30;100028.18;1704117;83;21059;-66
2021/05/23 10:30:10;;;;;;;;;;;;;;;35.37;22.42;100026.34;1707209;83;20944;-61
2021/05/23 10:32:38;;;;;;;4.00;1.80;;;;;;;35.48;21.89;100017.29;1704882;83;20163;-65
2021/05/23 10:35:22;;;;;;;5.03;1.75;;;;;;;35.54;21.83;100019.97;1702564;82;20987;-62
2021/05/23 10:37:50;;;;;;;2.83;1.40;;;;;;;35.64;21.73;100017.81;1686431;82;20989;-65
2021/05/23 10:40:22;;;;;;;4.95;1.85;;;;;;;35.58;21.86;100014.63;1701487;79;21099;-65
2021/05/23 10:42:55;;;;;;;4.08;2.00;;;;;;;35.54;21.62;100016.48;1753110;80;21363;-62
2021/05/23 10:45:31;;;;;;;2.85;1.70;;;;;;;35.46;21.65;100010.10;1757895;80;21040;-64
2021/05/23 10:48:00;;;;;;;2.60;1.70;;;;;;;35.30;21.83;100016.14;1752679;81;20953;-63
2021/05/23 10:50:33;;;;;;;3.20;1.62;;;;;;;35.09;21.76;100013.78;1757119;80;21333;-63
2021/05/23 10:52:59;;;;;;;9.78;1.80;;;;;;;34.81;22.46;100020.66;1752652;80;21134;-63
2021/05/23 10:55:26;;;;;;;4.00;1.67;;;;;;;34.60;22.59;100019.60;1751775;80;21304;-60
2021/05/23 10:57:56;;;;;;;3.02;1.90;;;;;;;34.62;23.00;100011.33;1754974;80;20952;-64
2021/05/23 11:00:36;;;;;;;3.02;2.00;;;;;;;34.73;22.58;100004.03;1747121;80;21084;-62
2021/05/23 11:03:14;;;;;;;3.05;1.92;;;;;;;34.82;22.71;100002.72;1746187;80;22193;-62
2021/05/23 11:05:42;;;;;;;2.80;2.05;;;;;;;34.73;22.00;100002.67;1750982;80;20988;-65
2021/05/23 11:08:14;;;;;;;3.37;1.82;;;;;;;34.49;22.65;100006.34;1737350;80;20992;-60
2021/05/23 11:10:46;;;;;;;3.77;1.62;;;;;;;34.41;22.54;99996.49;1756598;80;21037;-65
2021/05/23 11:13:18;;;;;;;5.33;1.92;;;;;;;34.28;22.57;99998.48;1749636;80;21098;-64
2021/05/23 11:15:46;;;;;;;5.65;1.47;;;;;;;33.86;23.21;100009.74;1749411;80;21044;-64
2021/05/23 11:18:25;;;;;;;5.87;1.90;;;;;;;33.54;24.58;100005.61;1744753;81;21029;-65
2021/05/23 11:21:00;;;;;;;2.02;1.30;;;;;;;33.62;24.12;100003.32;1750435;80;20961;-62
2021/05/23 11:23:28;;;;;;;2.87;1.30;;;;;;;33.74;24.09;100007.89;1753008;81;21028;-66
2021/05/23 11:26:07;;;;;;;2.00;1.50;;;;;;;33.84;24.16;100005.27;1753011;80;21581;-61
2021/05/23 11:28:34;;;;;;;1.77;1.20;;;;;;;33.82;24.69;100007.52;1752829;81;21644;-63
2021/05/23 11:31:00;;;;;;;2.90;1.55;;;;;;;33.66;25.01;100009.61;1755038;80;21043;-65
2021/05/23 11:33:28;;;;;;;2.47;1.57;;;;;;;33.45;24.54;100002.22;1759178;80;20881;-65
2021/05/23 11:35:55;;;;;;;2.25;1.40;;;;;;;33.24;25.19;100001.62;1752291;81;20961;-65
2021/05/23 11:38:36;;;;;;;5.55;2.02;;;;;;;33.09;25.40;99995.80;1750188;80;21044;-66
2021/05/23 11:41:04;;;;;;;4.08;1.70;;;;;;;32.95;25.09;99999.41;1752860;81;22536;-64
2021/05/23 11:43:30;;;;;;;5.35;1.70;;;;;;;32.82;25.47;99994.57;1760133;80;21510;-59
2021/05/23 11:46:02;;;;;;;7.08;2.25;;;;;;;32.68;25.76;99994.91;1750465;81;21518;-65
2021/05/23 11:48:38;;;;;;;4.17;1.57;;;;;;;32.67;25.67;99991.20;1756065;80;21050;-63
2021/05/23 11:51:08;;;;;;;6.90;1.70;;;;;;;32.77;25.82;99990.76;1751480;80;21016;-64
2021/05/23 11:53:43;;;;;;;7.40;1.82;;;;;;;32.78;25.79;99996.94;1754860;80;20965;-64
2021/05/23 11:56:17;;;;;;;5.97;1.90;;;;;;;32.72;25.65;99998.28;1742127;81;21083;-62
2021/05/23 11:58:52;;;;;;;4.17;1.70;;;;;;;32.74;26.23;99992.00;1752534;80;21709;-67
2021/05/23 12:01:28;;;;;;;2.52;1.50;;;;;;;32.74;25.47;99994.13;1744350;80;21012;-61
2021/05/23 12:04:09;;;;;;;3.83;1.52;;;;;;;32.46;26.16;99993.44;1749215;80;21634;-63
2021/05/23 12:06:43;;;;;;;6.08;1.90;;;;;;;32.46;26.12;99994.78;1749211;80;21076;-63
2021/05/23 12:09:15;;;;;;;3.15;1.57;;;;;;;32.55;26.28;99989.86;1745504;80;21062;-63
2021/05/23 12:11:49;;;;;;;2.47;1.40;;;;;;;32.61;26.12;99987.93;1752289;80;21024;-66
2021/05/23 12:14:37;;;;;;;4.15;1.60;;;;;;;32.70;25.58;99989.19;1754277;80;21557;-68
2021/05/23 12:17:15;;;;;;;2.90;1.57;;;;;;;32.76;25.88;99993.78;1748773;80;21036;-64
2021/05/23 12:19:58;;;;;;;3.52;1.30;;;;;;;32.73;25.61;99985.00;1754289;80;21235;-64
2021/05/23 12:22:27;;;;;;;3.52;1.70;;;;;;;32.65;25.55;99982.08;1750673;80;21722;-63
2021/05/23 12:25:05;;;;;;;3.27;1.50;;;;;;;32.61;25.58;99986.58;1754100;80;21077;-59
2021/05/23 12:27:48;;;;;;;5.17;1.70;;;;;;;32.66;25.47;99984.24;1750018;81;21155;-66
2021/05/23 12:30:23;;;;;;;7.45;1.85;;;;;;;32.56;25.53;99985.47;1751739;81;20968;-67
2021/05/23 12:32:58;;;;;;;2.77;1.37;;;;;;;32.47;25.46;99986.16;1750984;80;21084;-67
2021/05/23 12:35:30;;;;;;;4.10;1.72;;;;;;;32.30;26.03;99987.67;1744386;81;21665;-67
2021/05/23 12:38:00;;;;;;;3.37;1.50;;;;;;;32.19;25.64;99988.09;1750836;81;20925;-65
2021/05/23 12:40:40;;;;;;;2.85;1.50;;;;;;;32.08;26.00;99989.64;1751038;80;21613;-66
2021/05/23 12:43:26;;;;;;;3.75;1.32;;;;;;;31.91;26.17;99991.97;1746593;80;21000;-67
2021/05/23 12:46:10;;;;;;;2.08;1.35;;;;;;;31.63;26.02;99983.66;1740937;80;20969;-61
2021/05/23 12:48:40;;;;;;;4.72;1.70;;;;;;;31.53;26.05;99985.97;1748863;80;21063;-65
2021/05/23 12:51:18;;;;;;;2.50;1.42;;;;;;;31.52;26.71;99993.27;1754043;80;20925;-65
2021/05/23 12:53:50;;;;;;;2.70;1.40;;;;;;;31.50;26.50;99988.75;1753424;81;20945;-65
2021/05/23 12:56:35;;;;;;;1.65;1.10;;;;;;;31.52;26.15;99992.45;1747879;80;20992;-64
2021/05/23 12:59:15;;;;;;;2.00;1.30;;;;;;;31.45;25.47;99991.66;1750403;81;21026;-66
2021/05/23 13:01:45;;;;;;;3.17;1.55;;;;;;;31.23;25.83;99992.73;1741213;81;21095;-66
2021/05/23 13:04:17;;;;;;;;;;;;;;;31.00;26.20;100001.12;1746858;80;21495;-66
2021/05/23 13:06:56;;;;;;;2.65;1.10;;;;;;;30.86;26.02;99995.73;1746322;80;20155;-66
2021/05/23 13:09:40;;;;;;;1.62;1.15;;;;;;;30.68;25.99;99998.47;1751040;81;21943;-68
2021/05/23 13:12:13;;;;;;;3.20;1.10;;;;;;;30.61;26.48;99996.88;1704431;81;21040;-61
2021/05/23 13:14:59;;;;;;;2.92;1.27;;;;;;;30.65;26.13;100010.44;1752684;80;21152;-66
2021/05/23 13:17:31;;;;;;;3.33;1.37;;;;;;;30.57;26.42;100003.20;1745468;81;21020;-67
2021/05/23 13:20:01;;;;;;;1.77;1.12;;;;;;;30.55;26.28;99999.50;1752039;81;21097;-61
2021/05/23 13:22:30;;;;;;;2.20;1.00;;;;;;;30.56;26.19;100001.06;1755174;80;20977;-66
2021/05/23 13:24:58;;;;;;;2.45;1.30;;;;;;;30.56;26.09;100000.28;1752888;80;21079;-66
2021/05/23 13:27:25;;;;;;;2.60;1.10;;;;;;;30.45;26.61;99996.59;1748527;80;21056;-65
2021/05/23 13:29:53;;;;;;;4.50;1.40;;;;;;;30.33;26.82;99999.73;1745374;81;21640;-61
2021/05/23 13:32:19;;;;;;;2.83;1.00;;;;;;;30.26;26.46;100001.01;1750958;81;20886;-65
2021/05/23 13:34:46;;;;;;;4.20;1.12;;;;;;;30.13;26.63;100003.32;1754474;80;21063;-68
2021/05/23 13:37:15;;;;;;;3.80;1.60;;;;;;;30.09;27.13;100002.38;1755327;80;21084;-68
2021/05/23 13:39:42;;;;;;;2.02;1.27;;;;;;;30.11;26.87;100003.40;1748803;81;21096;-61
2021/05/23 13:42:09;;;;;;;2.90;1.10;;;;;;;30.14;27.31;100010.83;1740967;81;20999;-64
2021/05/23 13:44:37;;;;;;;2.45;1.20;;;;;;;30.12;26.85;100002.28;1724114;83;21461;-70
2021/05/23 13:47:05;;;;;;;3.25;1.15;;;;;;;30.07;27.23;100004.59;1721304;82;21012;-67
2021/05/23 13:49:32;;;;;;;3.95;0.90;;;;;;;30.01;27.50;99997.82;1725097;83;20905;-70
2021/05/23 13:52:00;;;;;;;1.87;1.00;;;;;;;29.92;27.71;99999.16;1721796;82;21090;-64
2021/05/23 13:54:26;;;;;;;4.53;1.00;;;;;;;29.84;28.00;99997.28;1723919;83;21055;-65
2021/05/23 13:56:53;;;;;;;4.20;1.17;;;;;;;29.80;27.62;99995.78;1724784;83;21071;-65
2021/05/23 13:59:20;;;;;;;2.70;0.90;;;;;;;29.74;27.51;99990.35;1722134;83;20908;-65
2021/05/23 14:01:47;;;;;;;1.90;1.07;;;;;;;29.66;28.19;99998.39;1724787;83;20941;-63
2021/05/23 14:04:17;;;;;;;7.45;1.55;;;;;;;29.55;28.04;99999.27;1720401;83;22432;-61
2021/05/23 14:06:48;;;;;;;5.12;1.10;;;;;;;29.43;28.18;99991.81;1724931;83;22617;-66
2021/05/23 14:09:18;;;;;;;2.33;1.15;;;;;;;29.39;28.63;100006.19;1723852;83;20960;-67
2021/05/23 14:11:46;;;;;;;1.30;0.90;;;;;;;29.33;27.88;100000.19;1724192;83;20985;-64
2021/05/23 14:14:12;;;;;;;5.60;1.20;;;;;;;29.24;28.39;100001.50;1723211;83;21021;-63
2021/05/23 14:16:39;;;;;;;1.47;0.90;;;;;;;29.09;28.19;100003.30;1724025;82;21091;-64
2021/05/23 14:19:07;;;;;;;2.72;1.30;;;;;;;28.88;28.59;100004.97;1724061;83;20861;-63
2021/05/23 14:21:36;;;;;;;1.72;1.00;;;;;;;28.73;28.89;100005.63;1724199;82;21549;-64
2021/05/23 14:24:05;;;;;;;3.25;0.93;;;;;;;28.64;28.75;100008.84;1724308;83;20980;-64
2021/05/23 14:26:32;;;;;;;3.62;0.90;;;;;;;28.55;28.89;100013.36;1721845;82;21458;-64
2021/05/23 14:28:59;;;;;;;3.93;1.10;;;;;;;28.44;28.69;100004.78;1721869;83;21739;-65
2021/05/23 14:31:27;;;;;;;9.43;1.37;;;;;;;28.32;29.03;100014.71;1725277;83;21016;-67
2021/05/23 14:33:54;;;;;;;4.00;1.00;;;;;;;28.30;29.35;100015.59;1722774;83;21120;-64
2021/05/23 14:36:20;;;;;;;5.00;1.43;;;;;;;28.31;29.47;100019.05;1724036;83;21513;-63
2021/05/23 14:38:48;;;;;;;3.73;1.20;;;;;;;28.28;29.85;100016.98;1723688;83;21074;-65
2021/05/23 14:41:15;;;;;;;2.17;1.00;;;;;;;28.22;30.54;100025.68;1711553;83;21709;-66
2021/05/23 14:43:42;;;;;;;1.97;0.90;;;;;;;28.18;30.11;100031.41;1746738;80;22507;-66
2021/05/23 14:46:09;;;;;;;2.13;1.20;;;;;;;28.12;29.83;100036.67;1753468;81;21124;-65
2021/05/23 14:48:36;;;;;;;5.73;0.97;;;;;;;28.00;30.16;100035.10;1753839;80;22454;-61
2021/05/23 14:51:04;;;;;;;2.47;0.90;;;;;;;27.86;29.92;100035.14;1746713;80;22716;-67
2021/05/23 14:53:32;;;;;;;5.37;1.10;;;;;;;27.71;30.13;100041.61;1739014;80;21089;-65
2021/05/23 14:56:02;;;;;;;4.27;1.30;;;;;;;27.58;30.36;100045.14;1731337;80;21004;-65
2021/05/23 14:58:29;;;;;;;5.47;1.60;;;;;;;27.45;30.65;100041.38;1740983;80;21067;-61
2021/05/23 15:01:03;;;;;;;2.60;1.13;;;;;;;27.33;31.26;100049.92;1752856;80;21294;-66
2021/05/23 15:03:31;;;;;;;4.30;1.17;;;;;;;27.23;31.52;100046.11;1748419;80;20985;-65
2021/05/23 15:05:58;;;;;;;3.43;1.00;;;;;;;27.10;31.15;100046.91;1750343;80;21715;-65
2021/05/23 15:08:28;;;;;;;4.47;1.40;;;;;;;26.91;31.28;100051.80;1751911;80;21084;-61
2021/05/23 15:10:55;;;;;;;2.57;0.93;;;;;;;26.67;31.81;100049.86;1744146;80;20961;-64
2021/05/23 15:13:22;;;;;;;3.60;0.90;;;;;;;26.40;32.15;100059.38;1751752;81;21008;-63
2021/05/23 15:15:50;;;;;;;2.73;1.00;;;;;;;26.14;32.74;100070.23;1752543;80;20996;-65
2021/05/23 15:18:19;;;;;;;2.47;0.90;;;;;;;25.88;33.13;100073.28;1750642;80;21093;-67
2021/05/23 15:20:47;;;;;;;10.43;1.90;;;;;;;25.63;33.69;100081.60;1753617;80;22290;-65
2021/05/23 15:23:13;;;;;;;3.10;0.70;;;;;;;25.38;34.32;100076.86;1752298;81;21032;-66
2021/05/23 15:25:40;;;;;;;4.43;1.03;;;;;;;25.13;34.76;100079.27;1752604;80;21013;-66
2021/05/23 15:31:14;;;;;;;2.20;1.00;;;;;;;24.72;35.82;100087.65;1750286;80;21076;-68
2021/05/23 15:33:44;;;;;;;2.80;1.03;;;;;;;24.50;36.70;100093.44;1751703;81;20917;-64
2021/05/23 15:36:12;;;;;;;3.22;1.10;;;;;;;24.32;37.08;100095.95;1746581;80;21047;-64
2021/05/23 15:38:40;;;;;;;2.40;0.80;;;;;;;24.12;37.33;100099.56;1752302;80;20961;-65
2021/05/23 15:41:08;;;;;;;5.10;0.90;;;;;;;23.94;38.01;100100.48;1749181;80;21648;-64
2021/05/23 15:43:35;;;;;;;6.43;1.23;;;;;;;23.79;38.42;100101.91;1732721;80;21109;-63
2021/05/23 15:46:03;;;;;;;4.70;0.97;;;;;;;23.66;38.80;100103.79;1722269;83;22359;-64
2021/05/23 15:48:30;;;;;;;2.27;1.07;;;;;;;23.57;39.40;100115.55;1724297;83;21580;-62
2021/05/23 15:50:57;;;;;;;4.67;1.40;;;;;;;23.48;40.00;100118.48;1721717;83;20921;-64
2021/05/23 15:53:23;;;;;;;5.23;1.83;;;;;;;23.43;40.93;100123.84;1723464;83;21600;-60
2021/05/23 15:55:51;;;;;;;4.50;2.30;;;;;;;23.39;42.12;100124.91;1721426;83;21163;-64
2021/05/23 15:58:19;;;;;;;4.67;3.00;;;;;;;23.35;42.63;100129.18;1723363;83;21549;-64
2021/05/23 16:00:45;;;;;;;5.67;2.57;;;;;;;23.32;43.34;100133.70;1722594;83;20981;-65
2021/05/23 16:03:12;;;;;;;4.57;2.30;;;;;;;23.28;44.02;100136.64;1724000;83;21019;-64
2021/05/23 16:05:38;;;;;;;4.27;1.60;;;;;;;23.23;44.58;100136.67;1722658;83;20908;-61